Mc Kellar Sipes Regional Airport
KMKL : rendu visible

Aérodrome :











RETROUVEZ-NOUS SUR...

 
LOGIN :

S'inscrire | Disclaimer

   EN    FR    IT 

 









Légende :    VFR   VFR Marginal   IFR   IFR Intensif   IFR Très Intensif
Visi : 
Plafond : 
>= 8 km
>= 3000ft
5 à 8 km
1000 à 3000 ft
1500m à 5 km
500 à 1000 ft
800 à 1500m
200 à 500 ft
< 800m
< 200 ft
Symboles :   Orages  Brouillard  Fortes neiges  Fortes précipitations  Vent > 20 kt






- Altitude de l'aérodrome : 434 ft
- Code IATA : MKL


KMKL - Mc Kellar Sipes Regional

DERNIER METAR :
  • 290139Z AUTO 19008KT 10SM FEW055 BKN095 26/19 A2981 RMK AO2 LTG DSNT SW-N T02560189

METARs EXPIRÉS :
  • 290116Z AUTO 20007KT 10SM VCTS FEW055 26/18 A2980 RMK AO2 LTG DSNT W AND NW T02560183
  • 290053Z AUTO 21007KT 10SM CLR 25/18 A2979 RMK AO2 SLP081 T02500183
  • 282353Z AUTO 21007KT 10SM FEW110 26/18 A2976 RMK AO2 SLP074 T02610178 10272 20261 56005

TAF KMKL
Valide du 29 à 00h jusqu'au 30 à 00h UTC


282325Z 2900/2924 21010KT P6SM BKN080
FM290100 21010G25KT P6SM VCTS FEW040CB OVC070
TEMPO 2902/2903 26015G30KT 1SM TSRA BKN025CB
FM290500 23010G17KT P6SM VCSH BKN060
FM290900 23010KT P6SM BKN100
FM291200 24011KT P6SM FEW250
FM291800 27013G20KT P6SM SKC



MET'MAP, la Météo Aéronautique d'un coup d'oeil ! - Copyright ORBIFLY Décembre 2007 - Disclaimer

ORBIFLY MET'MAP TEAM :

Programmation & Développement : Alexandra Zaïnal
Sur une idée originale de : Baudouin d'Aumeries
Assistance à la programmation : Marc-Olivier Méhu
Soutien technique & logistique : Manuel Goepfert

Contact : metmap@orbifly.com




SOURCES & CREDITS :

   NOAA       Earth
Advisory